createdAt,value
2023-03-26T00:01:46.537Z,95140.50
2023-03-26T00:06:51.441Z,95167.75
2023-03-26T00:11:53.120Z,95154.16
2023-03-26T00:16:57.754Z,95151.03
2023-03-26T00:21:59.445Z,95165.41
2023-03-26T00:27:02.282Z,95164.63
2023-03-26T00:32:10.247Z,95192.25
2023-03-26T00:37:15.108Z,95161.94
2023-03-26T00:42:16.742Z,95165.41
2023-03-26T00:47:21.404Z,95174.38
2023-03-26T00:52:28.509Z,95165.81
2023-03-26T00:57:35.979Z,95171.25
2023-03-26T01:02:40.838Z,95153.38
2023-03-26T01:07:42.734Z,95164.25
2023-03-26T01:12:44.521Z,95164.63
2023-03-26T01:17:48.691Z,95163.50
2023-03-26T01:22:59.833Z,95158.03
2023-03-26T01:28:08.783Z,95168.91
2023-03-26T01:33:30.155Z,95161.91
2023-03-26T01:38:46.647Z,95159.19
2023-03-26T01:44:00.055Z,95162.31
2023-03-26T01:49:07.314Z,95165.00
2023-03-26T01:54:19.389Z,95163.84
2023-03-26T01:59:52.202Z,95157.59
2023-03-26T02:05:12.560Z,95152.56
2023-03-26T02:10:24.228Z,95152.94
2023-03-26T02:15:30.509Z,95146.72
2023-03-26T02:20:37.382Z,95143.22
2023-03-26T02:25:39.869Z,95150.63
2023-03-26T02:30:47.861Z,95135.03
2023-03-26T02:35:50.274Z,95135.81
2023-03-26T02:40:53.373Z,95131.16
2023-03-26T02:46:00.930Z,95115.59
2023-03-26T02:51:27.389Z,95114.41
2023-03-26T02:56:38.460Z,95114.41
2023-03-26T03:01:53.610Z,95113.59
2023-03-26T03:07:20.326Z,95110.91
2023-03-26T03:12:24.837Z,95113.19
2023-03-26T03:17:35.452Z,95099.94
2023-03-26T03:22:37.808Z,95105.81
2023-03-26T03:27:41.609Z,95100.75
2023-03-26T03:32:50.178Z,95110.91
2023-03-26T03:37:58.578Z,95076.31
2023-03-26T03:43:01.358Z,95083.69
2023-03-26T03:48:18.414Z,95081.72
2023-03-26T03:53:25.933Z,95079.00
2023-03-26T03:58:31.527Z,95071.59
2023-03-26T04:03:46.536Z,95077.81
2023-03-26T04:08:51.718Z,95074.69
2023-03-26T04:13:57.241Z,95058.75
2023-03-26T04:19:23.293Z,95056.00
2023-03-26T04:24:34.101Z,95055.63
2023-03-26T04:29:44.772Z,95055.63
2023-03-26T04:34:56.129Z,95052.13
2023-03-26T04:40:02.626Z,95054.06
2023-03-26T04:45:11.340Z,95057.19
2023-03-26T04:50:15.568Z,95063.03
2023-03-26T04:55:31.526Z,95043.97
2023-03-26T05:00:47.754Z,95049.06
2023-03-26T05:05:58.672Z,95037.03
2023-03-26T05:11:01.564Z,95051.81
2023-03-26T05:16:09.485Z,95043.28
2023-03-26T05:21:14.794Z,95026.56
2023-03-26T05:26:20.422Z,95027.38
2023-03-26T05:31:33.572Z,95024.66
2023-03-26T05:36:36.993Z,95013.75
2023-03-26T05:42:16.149Z,95007.53
2023-03-26T05:47:35.588Z,95014.94
2023-03-26T05:52:41.107Z,94997.03
2023-03-26T05:57:59.181Z,95001.72
2023-03-26T06:03:19.634Z,94985.78
2023-03-26T06:08:46.842Z,94979.19
2023-03-26T06:13:49.214Z,94977.63
2023-03-26T06:19:02.032Z,94979.59
2023-03-26T06:24:22.581Z,94976.13
2023-03-26T06:29:50.619Z,94961.31
2023-03-26T06:35:08.703Z,94950.50
2023-03-26T06:40:10.818Z,94945.81
2023-03-26T06:45:24.263Z,94955.56
2023-03-26T06:50:44.562Z,94953.63
2023-03-26T06:56:13.093Z,94945.81
2023-03-26T07:01:31.989Z,94934.53
2023-03-26T07:06:54.278Z,94939.56
2023-03-26T07:12:21.745Z,94937.59
2023-03-26T07:17:43.058Z,94940.66
2023-03-26T07:23:00.400Z,94919.25
2023-03-26T07:29:04.955Z,94910.31
2023-03-26T07:35:21.626Z,94916.09
2023-03-26T07:40:53.267Z,94903.22
2023-03-26T07:46:14.379Z,94895.81
2023-03-26T07:51:41.785Z,94883.72
2023-03-26T07:57:22.572Z,94887.56
2023-03-26T08:03:11.483Z,94873.56
2023-03-26T08:09:13.306Z,94858.03
2023-03-26T08:15:02.408Z,94849.44
2023-03-26T08:20:37.518Z,94861.06
2023-03-26T08:26:04.511Z,94836.16
2023-03-26T08:31:12.585Z,94834.19
2023-03-26T08:36:16.447Z,94829.09
2023-03-26T08:41:46.846Z,94829.41
2023-03-26T08:47:18.548Z,94813.03
2023-03-26T08:53:07.654Z,94811.81
2023-03-26T08:58:37.225Z,94799.28
2023-03-26T09:03:50.987Z,94774.28
2023-03-26T09:09:35.713Z,94769.13
2023-03-26T09:14:48.879Z,94756.53
2023-03-26T09:20:12.138Z,94735.78
2023-03-26T09:25:48.338Z,94727.53
2023-03-26T09:31:30.358Z,94725.84
2023-03-26T09:36:36.445Z,94721.41
2023-03-26T09:42:30.808Z,94705.72
2023-03-26T09:47:39.137Z,94712.66
2023-03-26T09:53:08.773Z,94704.84
2023-03-26T09:58:56.611Z,94696.59
2023-03-26T10:04:40.985Z,94691.88
2023-03-26T10:09:55.644Z,94673.88
2023-03-26T10:15:05.428Z,94685.94
2023-03-26T10:20:31.786Z,94673.13
2023-03-26T10:25:51.673Z,94676.25
2023-03-26T10:31:19.159Z,94695.44
2023-03-26T10:36:37.234Z,94690.13
2023-03-26T10:41:54.150Z,94691.72
2023-03-26T10:47:23.397Z,94683.22
2023-03-26T10:52:48.456Z,94684.09
2023-03-26T10:57:59.888Z,94681.97
2023-03-26T11:03:27.180Z,94683.00
2023-03-26T11:08:53.786Z,94681.22
2023-03-26T11:14:21.388Z,94691.50
2023-03-26T11:19:52.689Z,94679.81
2023-03-26T11:25:05.828Z,94678.56
2023-03-26T11:30:41.616Z,94667.34
2023-03-26T11:35:55.327Z,94677.09
2023-03-26T11:40:59.120Z,94660.84
2023-03-26T11:46:22.818Z,94665.97
2023-03-26T11:51:33.046Z,94659.44
2023-03-26T11:57:05.498Z,94648.56
2023-03-26T12:02:14.440Z,94614.69
2023-03-26T12:07:23.488Z,94597.47
2023-03-26T12:12:29.319Z,94593.75
2023-03-26T12:17:32.781Z,94588.94
2023-03-26T12:22:43.481Z,94578.78
2023-03-26T12:28:13.433Z,94569.09
2023-03-26T12:33:34.225Z,94556.25
2023-03-26T12:38:39.107Z,94545.97
2023-03-26T12:44:56.341Z,94550.88
2023-03-26T12:49:06.256Z,94550.75
2023-03-26T12:54:42.395Z,94548.78
2023-03-26T13:00:22.896Z,94539.75
2023-03-26T13:05:55.996Z,94543.56
2023-03-26T13:11:19.442Z,94533.78
2023-03-26T13:16:31.177Z,94520.34
2023-03-26T13:22:25.055Z,94507.59
2023-03-26T13:28:00.416Z,94487.53
2023-03-26T13:33:26.180Z,94491.91
2023-03-26T13:38:33.876Z,94497.78
2023-03-26T13:43:46.272Z,94491.22
2023-03-26T13:49:01.932Z,94482.91
2023-03-26T13:54:15.719Z,94486.75
2023-03-26T13:59:40.150Z,94506.44
2023-03-26T14:04:49.537Z,94487.00
2023-03-26T14:10:01.276Z,94471.25
2023-03-26T14:15:11.493Z,94450.84
2023-03-26T14:20:24.685Z,94441.59
2023-03-26T14:25:42.105Z,94419.84
2023-03-26T14:30:57.432Z,94417.03
2023-03-26T14:36:12.575Z,94414.41
2023-03-26T14:41:24.305Z,94410.56
2023-03-26T14:46:44.357Z,94395.75
2023-03-26T14:52:04.136Z,94389.81
2023-03-26T14:57:21.478Z,94380.91
2023-03-26T15:02:26.216Z,94393.63
2023-03-26T15:07:47.959Z,94389.69
2023-03-26T15:13:30.920Z,94399.44
2023-03-26T15:19:09.890Z,94398.00
2023-03-26T15:24:20.436Z,94388.78
2023-03-26T15:29:48.376Z,94400.94
2023-03-26T15:35:00.772Z,94399.81
2023-03-26T15:40:30.839Z,94403.94
2023-03-26T15:45:45.954Z,94416.75
2023-03-26T15:50:59.721Z,94406.94
2023-03-26T15:56:11.149Z,94421.19
2023-03-26T16:01:20.161Z,94405.53
2023-03-26T16:06:50.069Z,94397.91
2023-03-26T16:11:59.181Z,94411.09
2023-03-26T16:17:02.677Z,94417.13
2023-03-26T16:22:27.871Z,94415.50
2023-03-26T16:27:32.106Z,94409.94
2023-03-26T16:32:48.029Z,94410.25
2023-03-26T16:38:09.192Z,94396.88
2023-03-26T16:43:24.330Z,94385.03
2023-03-26T16:48:31.477Z,94386.81
2023-03-26T16:53:53.182Z,94386.06
2023-03-26T16:59:08.806Z,94383.31
2023-03-26T17:04:19.175Z,94388.00
2023-03-26T17:09:55.513Z,94389.63
2023-03-26T17:15:05.966Z,94389.59
2023-03-26T17:20:18.422Z,94370.84
2023-03-26T17:25:42.328Z,94358.63
2023-03-26T17:30:53.667Z,94376.31
2023-03-26T17:36:21.357Z,94374.72
2023-03-26T17:41:51.536Z,94372.94
2023-03-26T17:46:57.013Z,94366.38
2023-03-26T17:52:17.068Z,94356.28
2023-03-26T17:57:40.020Z,94360.66
2023-03-26T18:02:48.440Z,94359.56
2023-03-26T18:08:29.556Z,94382.25
2023-03-26T18:14:03.092Z,94389.03
2023-03-26T18:19:18.182Z,94388.53
2023-03-26T18:24:30.429Z,94380.84
2023-03-26T18:29:36.597Z,94379.31
2023-03-26T18:34:49.832Z,94387.53
2023-03-26T18:40:16.200Z,94396.66
2023-03-26T18:45:23.011Z,94396.47
2023-03-26T18:50:38.031Z,94405.28
2023-03-26T18:55:40.415Z,94379.22
2023-03-26T19:00:42.712Z,94382.97
2023-03-26T19:05:52.324Z,94401.84
2023-03-26T19:10:55.271Z,94392.53
2023-03-26T19:15:57.073Z,94394.56
2023-03-26T19:21:02.332Z,94405.25
2023-03-26T19:26:06.978Z,94401.09
2023-03-26T19:31:15.996Z,94380.31
2023-03-26T19:36:24.287Z,94392.84
2023-03-26T19:41:31.298Z,94401.88
2023-03-26T19:46:53.830Z,94388.63
2023-03-26T19:52:13.237Z,94399.03
2023-03-26T19:57:21.468Z,94391.66
2023-03-26T20:02:23.317Z,94395.00
2023-03-26T20:07:35.336Z,94402.03
2023-03-26T20:12:37.690Z,94400.84
2023-03-26T20:17:42.681Z,94400.44
2023-03-26T20:22:46.883Z,94404.81
2023-03-26T20:27:48.880Z,94412.34
2023-03-26T20:33:12.790Z,94424.16
2023-03-26T20:38:19.831Z,94427.59
2023-03-26T20:43:24.079Z,94428.59
2023-03-26T20:48:28.532Z,94424.75
2023-03-26T20:53:32.661Z,94423.72
2023-03-26T20:58:34.296Z,94431.59
2023-03-26T21:03:40.772Z,94435.53
2023-03-26T21:08:45.539Z,94428.16
2023-03-26T21:13:58.082Z,94420.88
2023-03-26T21:19:00.110Z,94422.03
2023-03-26T21:24:20.526Z,94410.84
2023-03-26T21:29:25.286Z,94423.28
2023-03-26T21:34:29.303Z,94426.09
2023-03-26T21:39:32.730Z,94427.38
2023-03-26T21:44:34.681Z,94433.28
2023-03-26T21:49:38.945Z,94429.88
2023-03-26T21:54:43.834Z,94432.59
2023-03-26T22:00:11.581Z,94436.94
2023-03-26T22:05:25.550Z,94452.91
2023-03-26T22:10:27.865Z,94439.34
2023-03-26T22:15:35.452Z,94447.50
2023-03-26T22:20:37.609Z,94442.59
2023-03-26T22:25:44.196Z,94463.59
2023-03-26T22:30:46.320Z,94446.53
2023-03-26T22:35:47.925Z,94446.84
2023-03-26T22:40:57.459Z,94452.66
2023-03-26T22:45:59.415Z,94440.69
2023-03-26T22:51:04.277Z,94458.56
2023-03-26T22:56:06.417Z,94447.75
2023-03-26T23:01:18.813Z,94450.38
2023-03-26T23:06:22.716Z,94445.31
2023-03-26T23:11:29.565Z,94442.53
2023-03-26T23:16:33.646Z,94449.91
2023-03-26T23:21:37.676Z,94463.53
2023-03-26T23:26:50.639Z,94455.34
2023-03-26T23:31:54.020Z,94447.28
2023-03-26T23:36:57.932Z,94453.88
2023-03-26T23:41:59.516Z,94451.94
2023-03-26T23:47:01.141Z,94454.25
2023-03-26T23:52:12.080Z,94450.75
2023-03-26T23:57:13.834Z,94451.16
